Time,TemperatureF,DewpointF,PressureIn,WindDirection,WindDirectionDegrees,WindSpeedMPH,WindSpeedGustMPH,Humidity,HourlyPrecipIn,Conditions,Clouds,dailyrainin,SoftwareType,DateUTC
2013-02-01 00:03:00,48.0,39.0,30.22,North,352,7.0,10.0,72,0.48,,,-99.99,,2013-02-01 05:03:00,
2013-02-01 00:12:00,48.0,39.0,30.22,North,352,7.0,10.0,72,0.48,,,-99.99,,2013-02-01 05:12:00,
2013-02-01 00:22:00,47.0,39.0,30.22,NNW,347,6.0,9.0,73,0.48,,,-99.99,,2013-02-01 05:22:00,
2013-02-01 00:32:00,47.0,39.0,30.22,NNW,347,6.0,9.0,73,0.48,,,-99.99,,2013-02-01 05:32:00,
2013-02-01 00:42:00,47.0,39.0,30.22,NNW,347,6.0,9.0,73,0.48,,,-99.99,,2013-02-01 05:42:00,
2013-02-01 00:52:00,46.0,39.0,30.22,North,354,7.0,9.0,76,0.48,,,-99.99,,2013-02-01 05:52:00,
2013-02-01 01:02:00,46.0,39.0,30.22,NNW,343,6.0,8.0,76,0.48,,,-99.99,,2013-02-01 06:02:00,
2013-02-01 01:12:00,46.0,39.0,30.22,NNW,343,6.0,8.0,76,0.48,,,-99.99,,2013-02-01 06:12:00,
2013-02-01 01:22:00,45.0,38.0,30.22,NNW,346,6.0,8.0,76,0.48,,,-99.99,,2013-02-01 06:22:00,
2013-02-01 01:32:00,45.0,38.0,30.22,North,357,6.0,8.0,76,0.48,,,-99.99,,2013-02-01 06:32:00,
2013-02-01 01:42:00,45.0,38.0,30.22,North,357,6.0,8.0,76,0.48,,,-99.99,,2013-02-01 06:42:00,
2013-02-01 01:52:00,45.0,37.0,30.22,North,354,6.0,8.0,73,0.48,,,-99.99,,2013-02-01 06:52:00,
2013-02-01 02:02:00,45.0,37.0,30.22,North,349,9.0,11.0,72,0.48,,,-99.99,,2013-02-01 07:02:00,
2013-02-01 02:12:00,45.0,37.0,30.22,NNW,347,9.0,12.0,74,0.48,,,-99.99,,2013-02-01 07:12:00,
2013-02-01 02:22:00,45.0,37.0,30.22,NNW,347,9.0,12.0,74,0.48,,,-99.99,,2013-02-01 07:22:00,
2013-02-01 02:32:00,45.0,37.0,30.21,NNW,343,9.0,12.0,74,0.48,,,-99.99,,2013-02-01 07:32:00,
2013-02-01 02:42:00,45.0,37.0,30.21,NNW,343,9.0,12.0,74,0.48,,,-99.99,,2013-02-01 07:42:00,
2013-02-01 02:52:00,45.0,37.0,30.22,North,1,9.0,13.0,73,0.48,,,-99.99,,2013-02-01 07:52:00,
2013-02-01 03:01:00,45.0,35.0,30.22,North,352,11.0,15.0,69,0.48,,,-99.99,,2013-02-01 08:01:00,
2013-02-01 03:11:00,45.0,35.0,30.22,North,352,11.0,15.0,69,0.48,,,-99.99,,2013-02-01 08:11:00,
2013-02-01 03:21:00,46.0,36.0,30.22,North,354,11.0,16.0,68,0.48,,,-99.99,,2013-02-01 08:21:00,
2013-02-01 03:32:00,46.0,36.0,30.22,North,7,7.0,12.0,68,0.48,,,-99.99,,2013-02-01 08:32:00,
2013-02-01 03:42:00,46.0,36.0,30.22,North,7,7.0,12.0,68,0.48,,,-99.99,,2013-02-01 08:42:00,
2013-02-01 03:52:00,45.0,35.0,30.22,North,359,7.0,12.0,69,0.48,,,-99.99,,2013-02-01 08:52:00,
2013-02-01 04:01:00,45.0,36.0,30.22,North,354,8.0,12.0,70,0.48,,,-99.99,,2013-02-01 09:01:00,
2013-02-01 04:11:00,45.0,36.0,30.22,North,354,8.0,12.0,70,0.48,,,-99.99,,2013-02-01 09:11:00,
2013-02-01 04:21:00,45.0,36.0,30.22,North,357,8.0,10.0,71,0.48,,,-99.99,,2013-02-01 09:21:00,
2013-02-01 04:32:00,44.0,35.0,30.22,North,353,7.0,11.0,71,0.48,,,-99.99,,2013-02-01 09:32:00,
2013-02-01 04:42:00,44.0,35.0,30.22,North,353,7.0,11.0,71,0.48,,,-99.99,,2013-02-01 09:42:00,
2013-02-01 04:51:00,44.0,36.0,30.23,North,359,7.0,10.0,72,0.48,,,-99.99,,2013-02-01 09:51:00,
2013-02-01 05:01:00,44.0,36.0,30.24,North,3,6.0,10.0,74,0.48,,,-99.99,,2013-02-01 10:01:00,
2013-02-01 05:11:00,44.0,36.0,30.24,North,3,6.0,10.0,74,0.48,,,-99.99,,2013-02-01 10:11:00,
2013-02-01 05:21:00,44.0,37.0,30.23,North,0,5.0,9.0,76,0.48,,,-99.99,,2013-02-01 10:21:00,
2013-02-01 05:32:00,43.0,36.0,30.23,North,359,5.0,9.0,75,0.48,,,-99.99,,2013-02-01 10:32:00,
2013-02-01 05:42:00,43.0,36.0,30.23,North,359,5.0,9.0,75,0.48,,,-99.99,,2013-02-01 10:42:00,
2013-02-01 05:53:00,43.0,36.0,30.24,North,6,5.0,9.0,75,0.48,,,-99.99,,2013-02-01 10:53:00,
2013-02-01 06:02:00,43.0,36.0,30.25,North,4,3.0,7.0,76,0.48,,,-99.99,,2013-02-01 11:02:00,
2013-02-01 06:11:00,43.0,36.0,30.25,North,4,3.0,7.0,76,0.48,,,-99.99,,2013-02-01 11:11:00,
2013-02-01 06:22:00,42.0,35.0,30.25,North,1,3.0,9.0,77,0.48,,,-99.99,,2013-02-01 11:22:00,
2013-02-01 06:32:00,42.0,36.0,30.25,North,6,4.0,7.0,78,0.48,,,-99.99,,2013-02-01 11:32:00,
2013-02-01 06:42:00,42.0,36.0,30.25,North,6,4.0,7.0,78,0.48,,,-99.99,,2013-02-01 11:42:00,
2013-02-01 06:53:00,41.0,35.0,30.27,North,10,2.0,5.0,79,0.48,,,-99.99,,2013-02-01 11:53:00,
2013-02-01 07:03:00,41.0,35.0,30.27,North,8,3.0,6.0,79,0.48,,,-99.99,,2013-02-01 12:03:00,
2013-02-01 07:12:00,41.0,35.0,30.27,North,8,3.0,6.0,79,0.48,,,-99.99,,2013-02-01 12:12:00,
2013-02-01 07:22:00,41.0,35.0,30.27,North,354,5.0,8.0,79,0.48,,,-99.99,,2013-02-01 12:22:00,
2013-02-01 07:32:00,41.0,35.0,30.28,North,3,2.0,3.0,79,0.48,,,-99.99,,2013-02-01 12:32:00,
2013-02-01 07:42:00,41.0,35.0,30.28,North,3,2.0,3.0,79,0.48,,,-99.99,,2013-02-01 12:42:00,
2013-02-01 07:52:00,41.0,35.0,30.29,NNE,13,2.0,5.0,78,0.48,,,-99.99,,2013-02-01 12:52:00,
2013-02-01 08:02:00,42.0,36.0,30.29,North,353,5.0,7.0,79,0.48,,,-99.99,,2013-02-01 13:02:00,
2013-02-01 08:11:00,42.0,36.0,30.29,North,353,5.0,7.0,79,0.48,,,-99.99,,2013-02-01 13:11:00,
2013-02-01 08:22:00,43.0,36.0,30.30,North,359,6.0,8.0,76,0.48,,,-99.99,,2013-02-01 13:22:00,
2013-02-01 08:33:00,44.0,36.0,30.31,North,6,3.0,6.0,74,0.48,,,-99.99,,2013-02-01 13:33:00,
2013-02-01 08:42:00,44.0,36.0,30.31,North,6,3.0,6.0,74,0.48,,,-99.99,,2013-02-01 13:42:00,
2013-02-01 08:53:00,47.0,37.0,30.31,North,1,2.0,8.0,68,0.48,,,-99.99,,2013-02-01 13:53:00,
2013-02-01 09:03:00,48.0,36.0,30.32,North,0,3.0,6.0,64,0.48,,,-99.99,,2013-02-01 14:03:00,
2013-02-01 09:11:00,50.0,36.0,30.33,North,3,5.0,10.0,58,0.48,,,-99.99,,2013-02-01 14:11:00,
2013-02-01 09:22:00,50.0,36.0,30.33,North,3,5.0,10.0,58,0.48,,,-99.99,,2013-02-01 14:22:00,
2013-02-01 09:32:00,52.0,34.0,30.33,NNW,333,8.0,15.0,50,0.48,,,-99.99,,2013-02-01 14:32:00,
2013-02-01 09:42:00,52.0,34.0,30.33,NNW,333,8.0,15.0,50,0.48,,,-99.99,,2013-02-01 14:42:00,
2013-02-01 09:53:00,53.0,34.0,30.33,NNW,346,10.0,19.0,49,0.48,,,-99.99,,2013-02-01 14:53:00,
2013-02-01 10:02:00,54.0,34.0,30.33,North,11,7.0,13.0,46,0.48,,,-99.99,,2013-02-01 15:02:00,
2013-02-01 10:12:00,55.0,35.0,30.34,North,352,8.0,15.0,46,0.48,,,-99.99,,2013-02-01 15:12:00,
2013-02-01 10:22:00,55.0,35.0,30.34,North,352,8.0,15.0,46,0.48,,,-99.99,,2013-02-01 15:22:00,
2013-02-01 10:33:00,56.0,33.0,30.34,North,0,7.0,15.0,41,0.48,,,-99.99,,2013-02-01 15:33:00,
2013-02-01 10:42:00,56.0,33.0,30.34,North,0,7.0,15.0,41,0.48,,,-99.99,,2013-02-01 15:42:00,
2013-02-01 10:52:00,56.0,33.0,30.34,NNE,25,6.0,10.0,42,0.48,,,-99.99,,2013-02-01 15:52:00,
2013-02-01 11:03:00,57.0,32.0,30.35,North,354,6.0,14.0,39,0.48,,,-99.99,,2013-02-01 16:03:00,
2013-02-01 11:11:00,58.0,33.0,30.34,North,353,6.0,13.0,39,0.48,,,-99.99,,2013-02-01 16:11:00,
2013-02-01 11:22:00,58.0,33.0,30.34,North,353,6.0,13.0,39,0.48,,,-99.99,,2013-02-01 16:22:00,
2013-02-01 11:33:00,58.0,33.0,30.34,North,352,5.0,10.0,39,0.48,,,-99.99,,2013-02-01 16:33:00,
2013-02-01 11:43:00,59.0,33.0,30.33,NE,49,4.0,9.0,37,0.48,,,-99.99,,2013-02-01 16:43:00,
2013-02-01 11:52:00,59.0,33.0,30.33,NE,49,4.0,9.0,37,0.48,,,-99.99,,2013-02-01 16:52:00,
2013-02-01 12:02:00,60.0,32.0,30.33,ENE,58,4.0,8.0,34,0.48,,,-99.99,,2013-02-01 17:02:00,
2013-02-01 12:12:00,61.0,32.0,30.32,NNW,333,3.0,12.0,33,0.48,,,-99.99,,2013-02-01 17:12:00,
2013-02-01 12:22:00,61.0,32.0,30.32,NNW,333,3.0,12.0,33,0.48,,,-99.99,,2013-02-01 17:22:00,
2013-02-01 12:32:00,62.0,32.0,30.32,NNW,347,5.0,11.0,32,0.48,,,-99.99,,2013-02-01 17:32:00,
2013-02-01 12:42:00,62.0,32.0,30.32,NNW,347,5.0,11.0,32,0.48,,,-99.99,,2013-02-01 17:42:00,
2013-02-01 12:53:00,63.0,33.0,30.32,NNW,339,4.0,10.0,33,0.48,,,-99.99,,2013-02-01 17:53:00,
2013-02-01 13:03:00,64.0,30.0,30.31,ENE,69,4.0,7.0,28,0.48,,,-99.99,,2013-02-01 18:03:00,
2013-02-01 13:12:00,64.0,30.0,30.31,ENE,69,4.0,7.0,28,0.48,,,-99.99,,2013-02-01 18:12:00,
2013-02-01 13:22:00,63.0,29.0,30.30,North,359,3.0,8.0,27,0.48,,,-99.99,,2013-02-01 18:22:00,
2013-02-01 13:32:00,64.0,30.0,30.29,ENE,62,1.0,5.0,28,0.48,,,-99.99,,2013-02-01 18:32:00,
2013-02-01 13:42:00,64.0,30.0,30.29,ENE,62,1.0,5.0,28,0.48,,,-99.99,,2013-02-01 18:42:00,
2013-02-01 13:53:00,64.0,27.0,30.29,NNW,329,6.0,10.0,25,0.48,,,-99.99,,2013-02-01 18:53:00,
2013-02-01 14:03:00,65.0,25.0,30.28,NNW,343,5.0,13.0,22,0.48,,,-99.99,,2013-02-01 19:03:00,
2013-02-01 14:12:00,65.0,25.0,30.28,NNW,343,5.0,13.0,22,0.48,,,-99.99,,2013-02-01 19:12:00,
2013-02-01 14:21:00,65.0,25.0,30.27,ENE,65,3.0,6.0,22,0.48,,,-99.99,,2013-02-01 19:21:00,
2013-02-01 14:32:00,66.0,27.0,30.27,NNW,347,3.0,8.0,23,0.48,,,-99.99,,2013-02-01 19:32:00,
2013-02-01 14:42:00,66.0,27.0,30.27,NNW,347,3.0,8.0,23,0.48,,,-99.99,,2013-02-01 19:42:00,
2013-02-01 14:52:00,66.0,25.0,30.26,North,354,5.0,8.0,21,0.48,,,-99.99,,2013-02-01 19:52:00,
2013-02-01 15:02:00,66.0,24.0,30.26,NNW,346,5.0,10.0,20,0.48,,,-99.99,,2013-02-01 20:02:00,
2013-02-01 15:11:00,67.0,25.0,30.25,ENE,58,3.0,8.0,20,0.48,,,-99.99,,2013-02-01 20:11:00,
2013-02-01 15:21:00,67.0,25.0,30.25,ENE,58,3.0,8.0,20,0.48,,,-99.99,,2013-02-01 20:21:00,
2013-02-01 15:32:00,67.0,23.0,30.25,NNW,347,8.0,13.0,19,0.48,,,-99.99,,2013-02-01 20:32:00,
2013-02-01 15:42:00,67.0,26.0,30.26,NW,319,4.0,10.0,21,0.48,,,-99.99,,2013-02-01 20:42:00,
2013-02-01 15:52:00,67.0,26.0,30.26,NW,319,4.0,10.0,21,0.48,,,-99.99,,2013-02-01 20:52:00,
2013-02-01 16:02:00,67.0,23.0,30.25,NNW,345,5.0,11.0,19,0.48,,,-99.99,,2013-02-01 21:02:00,
2013-02-01 16:12:00,67.0,23.0,30.25,NNW,345,5.0,11.0,19,0.48,,,-99.99,,2013-02-01 21:12:00,
2013-02-01 16:22:00,67.0,22.0,30.24,NE,51,1.0,6.0,18,0.48,,,-99.99,,2013-02-01 21:22:00,
2013-02-01 16:32:00,67.0,23.0,30.25,NNW,340,4.0,9.0,19,0.48,,,-99.99,,2013-02-01 21:32:00,
2013-02-01 16:42:00,67.0,23.0,30.25,NNW,340,4.0,9.0,19,0.48,,,-99.99,,2013-02-01 21:42:00,
2013-02-01 16:52:00,67.0,22.0,30.25,ENE,68,2.0,5.0,18,0.48,,,-99.99,,2013-02-01 21:52:00,
2013-02-01 17:02:00,67.0,21.0,30.25,NNE,30,1.0,4.0,17,0.48,,,-99.99,,2013-02-01 22:02:00,
2013-02-01 17:11:00,67.0,23.0,30.25,NNW,339,2.0,6.0,19,0.48,,,-99.99,,2013-02-01 22:11:00,
2013-02-01 17:21:00,67.0,23.0,30.25,NNW,339,2.0,6.0,19,0.48,,,-99.99,,2013-02-01 22:21:00,
2013-02-01 17:32:00,66.0,25.0,30.24,NW,325,2.0,6.0,21,0.48,,,-99.99,,2013-02-01 22:32:00,
2013-02-01 17:42:00,66.0,25.0,30.24,NW,325,2.0,6.0,21,0.48,,,-99.99,,2013-02-01 22:42:00,
2013-02-01 17:52:00,66.0,26.0,30.25,NNW,332,4.0,7.0,22,0.48,,,-99.99,,2013-02-01 22:52:00,
2013-02-01 18:01:00,65.0,25.0,30.26,North,0,0.0,0.0,22,0.48,,,-99.99,,2013-02-01 23:01:00,
2013-02-01 18:11:00,65.0,26.0,30.25,North,0,0.0,0.0,23,0.48,,,-99.99,,2013-02-01 23:11:00,
2013-02-01 18:21:00,65.0,26.0,30.25,North,0,0.0,0.0,23,0.48,,,-99.99,,2013-02-01 23:21:00,
2013-02-01 18:32:00,64.0,26.0,30.25,North,0,0.0,0.0,24,0.48,,,-99.99,,2013-02-01 23:32:00,
2013-02-01 18:42:00,64.0,26.0,30.25,North,0,0.0,0.0,24,0.48,,,-99.99,,2013-02-01 23:42:00,
2013-02-01 18:52:00,64.0,25.0,30.26,North,0,0.0,0.0,23,0.48,,,-99.99,,2013-02-01 23:52:00,
2013-02-01 19:02:00,63.0,27.0,30.25,East,101,4.0,4.0,25,0.48,,,-99.99,,2013-02-02 00:02:00,
2013-02-01 19:11:00,63.0,27.0,30.25,East,101,4.0,4.0,25,0.48,,,-99.99,,2013-02-02 00:11:00,
2013-02-01 19:21:00,63.0,27.0,30.25,SE,127,2.0,3.0,25,0.48,,,-99.99,,2013-02-02 00:21:00,
2013-02-01 19:32:00,62.0,27.0,30.25,SE,146,2.0,3.0,26,0.48,,,-99.99,,2013-02-02 00:32:00,
2013-02-01 19:42:00,62.0,27.0,30.25,SE,146,2.0,3.0,26,0.48,,,-99.99,,2013-02-02 00:42:00,
2013-02-01 19:52:00,61.0,27.0,30.25,SE,145,4.0,4.0,27,0.48,,,-99.99,,2013-02-02 00:52:00,
2013-02-01 20:02:00,60.0,27.0,30.25,SE,139,4.0,5.0,28,0.48,,,-99.99,,2013-02-02 01:02:00,
2013-02-01 20:11:00,60.0,27.0,30.25,SE,139,4.0,5.0,28,0.48,,,-99.99,,2013-02-02 01:11:00,
2013-02-01 20:21:00,60.0,28.0,30.25,SE,143,3.0,4.0,29,0.48,,,-99.99,,2013-02-02 01:21:00,
2013-02-01 20:32:00,60.0,28.0,30.26,North,0,0.0,0.0,30,0.48,,,-99.99,,2013-02-02 01:32:00,
2013-02-01 20:42:00,60.0,28.0,30.26,North,0,0.0,0.0,30,0.48,,,-99.99,,2013-02-02 01:42:00,
2013-02-01 20:52:00,60.0,31.0,30.25,North,0,0.0,0.0,33,0.48,,,-99.99,,2013-02-02 01:52:00,
2013-02-01 21:01:00,60.0,28.0,30.26,North,0,0.0,0.0,29,0.48,,,-99.99,,2013-02-02 02:01:00,
2013-02-01 21:21:00,60.0,28.0,30.26,North,0,0.0,0.0,29,0.48,,,-99.99,,2013-02-02 02:21:00,
2013-02-01 21:32:00,55.0,41.0,30.27,WNW,300,7.0,10.0,58,0.48,,,-99.99,,2013-02-02 02:32:00,
2013-02-01 21:42:00,55.0,41.0,30.27,WNW,300,7.0,10.0,58,0.48,,,-99.99,,2013-02-02 02:42:00,
2013-02-01 21:52:00,54.0,40.0,30.27,NW,309,5.0,8.0,59,0.48,,,-99.99,,2013-02-02 02:52:00,
2013-02-01 22:02:00,55.0,41.0,30.27,NNW,335,7.0,9.0,60,0.48,,,-99.99,,2013-02-02 03:02:00,
2013-02-01 22:11:00,54.0,39.0,30.28,NNW,338,6.0,10.0,57,0.48,,,-99.99,,2013-02-02 03:11:00,
2013-02-01 22:22:00,54.0,39.0,30.28,NNW,338,6.0,10.0,57,0.48,,,-99.99,,2013-02-02 03:22:00,
2013-02-01 22:32:00,54.0,40.0,30.28,NNW,335,7.0,10.0,58,0.48,,,-99.99,,2013-02-02 03:32:00,
2013-02-01 22:42:00,53.0,39.0,30.28,North,349,7.0,10.0,59,0.48,,,-99.99,,2013-02-02 03:42:00,
2013-02-01 22:52:00,53.0,39.0,30.28,North,349,7.0,10.0,59,0.48,,,-99.99,,2013-02-02 03:52:00,
2013-02-01 23:02:00,52.0,39.0,30.28,NNW,343,7.0,9.0,62,0.48,,,-99.99,,2013-02-02 04:02:00,
2013-02-01 23:11:00,52.0,39.0,30.28,NNW,343,7.0,9.0,62,0.48,,,-99.99,,2013-02-02 04:11:00,
2013-02-01 23:22:00,52.0,41.0,30.28,NNW,332,6.0,9.0,65,0.48,,,-99.99,,2013-02-02 04:22:00,
2013-02-01 23:32:00,51.0,40.0,30.27,NNW,339,7.0,9.0,67,0.48,,,-99.99,,2013-02-02 04:32:00,
2013-02-01 23:42:00,51.0,40.0,30.27,NNW,339,7.0,9.0,67,0.48,,,-99.99,,2013-02-02 04:42:00,
2013-02-01 23:52:00,51.0,41.0,30.27,NNW,346,7.0,9.0,69,0.48,,,-99.99,,2013-02-02 04:52:00,